createdAt,value
2023-03-22T00:01:22.607Z,89.87
2023-03-22T00:03:51.546Z,89.52
2023-03-22T00:06:19.119Z,89.17
2023-03-22T00:08:50.597Z,89.20
2023-03-22T00:11:18.153Z,88.68
2023-03-22T00:13:46.834Z,90.09
2023-03-22T00:16:14.225Z,90.64
2023-03-22T00:18:41.209Z,89.45
2023-03-22T00:21:12.256Z,90.50
2023-03-22T00:23:39.303Z,89.73
2023-03-22T00:26:06.126Z,89.54
2023-03-22T00:28:32.623Z,90.08
2023-03-22T00:31:00.902Z,89.61
2023-03-22T00:33:29.225Z,89.86
2023-03-22T00:36:01.306Z,88.72
2023-03-22T00:38:42.809Z,89.55
2023-03-22T00:41:11.428Z,89.21
2023-03-22T00:43:38.455Z,89.41
2023-03-22T00:46:05.584Z,88.41
2023-03-22T00:48:32.056Z,88.75
2023-03-22T00:50:58.536Z,88.35
2023-03-22T00:53:25.056Z,89.56
2023-03-22T00:55:51.769Z,87.84
2023-03-22T00:58:18.249Z,88.11
2023-03-22T01:00:45.234Z,88.04
2023-03-22T01:03:15.989Z,88.94
2023-03-22T01:05:46.089Z,89.12
2023-03-22T01:08:12.858Z,87.58
2023-03-22T01:10:41.263Z,89.20
2023-03-22T01:13:08.694Z,87.58
2023-03-22T01:15:35.222Z,89.24
2023-03-22T01:18:01.655Z,89.47
2023-03-22T01:20:28.805Z,89.04
2023-03-22T01:22:55.385Z,90.49
2023-03-22T01:25:22.026Z,90.11
2023-03-22T01:27:48.510Z,90.34
2023-03-22T01:30:15.345Z,90.93
2023-03-22T01:32:42.152Z,91.54
2023-03-22T01:35:09.380Z,91.46
2023-03-22T01:37:36.027Z,89.42
2023-03-22T01:40:03.155Z,90.66
2023-03-22T01:42:29.686Z,89.94
2023-03-22T01:45:14.188Z,89.50
2023-03-22T01:47:49.285Z,89.42
2023-03-22T01:50:17.480Z,88.45
2023-03-22T01:52:44.340Z,88.54
2023-03-22T01:55:12.768Z,88.29
2023-03-22T01:57:41.984Z,88.98
2023-03-22T02:00:15.731Z,88.40
2023-03-22T02:02:43.931Z,87.18
2023-03-22T02:05:12.177Z,87.29
2023-03-22T02:07:40.759Z,87.62
2023-03-22T02:10:16.533Z,88.20
2023-03-22T02:13:31.073Z,88.38
2023-03-22T02:16:14.011Z,86.78
2023-03-22T02:18:54.539Z,88.25
2023-03-22T02:21:35.872Z,88.35
2023-03-22T02:24:05.116Z,88.34
2023-03-22T02:26:49.878Z,88.75
2023-03-22T02:29:29.931Z,87.60
2023-03-22T02:32:03.975Z,87.64
2023-03-22T02:34:40.874Z,89.05
2023-03-22T02:37:33.607Z,88.16
2023-03-22T02:40:12.105Z,90.39
2023-03-22T02:43:04.334Z,90.54
2023-03-22T02:45:45.691Z,90.72
2023-03-22T02:48:18.805Z,90.68
2023-03-22T02:51:33.205Z,89.87
2023-03-22T02:54:29.909Z,90.58
2023-03-22T02:57:02.986Z,90.27
2023-03-22T02:59:33.638Z,89.50
2023-03-22T03:02:03.533Z,90.28
2023-03-22T03:04:35.343Z,89.88
2023-03-22T03:07:04.365Z,89.28
2023-03-22T03:09:32.981Z,89.77
2023-03-22T03:11:59.364Z,90.82
2023-03-22T03:14:27.351Z,89.92
2023-03-22T03:17:35.144Z,89.97
2023-03-22T03:20:24.223Z,90.35
2023-03-22T03:23:05.463Z,89.52
2023-03-22T03:25:43.340Z,90.10
2023-03-22T03:28:10.000Z,89.05
2023-03-22T03:30:48.032Z,90.31
2023-03-22T03:33:17.591Z,89.19
2023-03-22T03:35:53.311Z,88.94
2023-03-22T03:38:25.228Z,89.63
2023-03-22T03:40:57.030Z,89.95
2023-03-22T03:43:25.385Z,90.67
2023-03-22T03:45:53.566Z,89.38
2023-03-22T03:48:24.918Z,88.56
2023-03-22T03:50:53.474Z,89.39
2023-03-22T03:53:20.055Z,88.88
2023-03-22T03:55:46.583Z,88.46
2023-03-22T03:58:12.983Z,90.05
2023-03-22T04:00:39.650Z,90.44
2023-03-22T04:03:06.589Z,90.43
2023-03-22T04:05:33.547Z,90.40
2023-03-22T04:08:00.140Z,89.60
2023-03-22T04:10:26.556Z,90.16
2023-03-22T04:12:52.982Z,89.05
2023-03-22T04:15:19.468Z,89.06
2023-03-22T04:17:46.586Z,89.85
2023-03-22T04:20:13.813Z,89.12
2023-03-22T04:22:40.975Z,87.56
2023-03-22T04:25:11.924Z,89.41
2023-03-22T04:27:42.776Z,88.47
2023-03-22T04:30:12.332Z,89.05
2023-03-22T04:32:38.928Z,88.02
2023-03-22T04:35:05.843Z,87.10
2023-03-22T04:37:32.278Z,88.00
2023-03-22T04:39:59.131Z,88.34
2023-03-22T04:42:25.770Z,88.57
2023-03-22T04:44:52.481Z,88.14
2023-03-22T04:47:18.938Z,88.61
2023-03-22T04:49:45.527Z,87.71
2023-03-22T04:52:11.957Z,88.19
2023-03-22T04:54:38.550Z,88.09
2023-03-22T04:57:05.152Z,89.04
2023-03-22T04:59:31.594Z,87.64
2023-03-22T05:01:58.631Z,88.56
2023-03-22T05:04:25.750Z,88.51
2023-03-22T05:06:52.252Z,89.44
2023-03-22T05:09:21.501Z,88.16
2023-03-22T05:11:49.232Z,88.99
2023-03-22T05:14:15.827Z,87.92
2023-03-22T05:16:42.354Z,88.86
2023-03-22T05:19:13.775Z,89.02
2023-03-22T05:21:44.096Z,89.14
2023-03-22T05:24:11.768Z,87.84
2023-03-22T05:26:42.080Z,88.69
2023-03-22T05:29:10.839Z,88.19
2023-03-22T05:31:37.756Z,88.85
2023-03-22T05:34:04.553Z,87.64
2023-03-22T05:36:31.102Z,87.68
2023-03-22T05:38:57.900Z,88.61
2023-03-22T05:41:24.302Z,88.06
2023-03-22T05:43:51.039Z,88.25
2023-03-22T05:46:17.452Z,88.85
2023-03-22T05:48:43.849Z,87.08
2023-03-22T05:51:17.358Z,87.90
2023-03-22T05:53:44.931Z,87.18
2023-03-22T05:56:11.428Z,88.07
2023-03-22T05:58:37.877Z,87.05
2023-03-22T06:01:06.415Z,86.76
2023-03-22T06:03:32.882Z,86.69
2023-03-22T06:05:59.333Z,88.68
2023-03-22T06:08:26.686Z,87.58
2023-03-22T06:10:53.856Z,87.45
2023-03-22T06:13:20.806Z,86.99
2023-03-22T06:15:47.299Z,87.48
2023-03-22T06:18:13.956Z,87.20
2023-03-22T06:20:41.922Z,87.79
2023-03-22T06:23:08.537Z,86.75
2023-03-22T06:25:35.157Z,86.55
2023-03-22T06:28:01.892Z,85.77
2023-03-22T06:30:28.389Z,86.47
2023-03-22T06:32:55.290Z,86.88
2023-03-22T06:35:21.727Z,86.47
2023-03-22T06:37:48.120Z,86.56
2023-03-22T06:40:15.320Z,86.18
2023-03-22T06:42:41.766Z,87.37
2023-03-22T06:45:08.861Z,87.18
2023-03-22T06:47:35.493Z,87.25
2023-03-22T06:50:02.020Z,85.26
2023-03-22T06:52:28.430Z,86.28
2023-03-22T06:54:54.858Z,86.22
2023-03-22T06:57:21.490Z,86.60
2023-03-22T06:59:48.023Z,86.33
2023-03-22T07:02:14.480Z,86.22
2023-03-22T07:04:40.929Z,86.17
2023-03-22T07:07:07.411Z,86.10
2023-03-22T07:09:33.842Z,86.93
2023-03-22T07:12:00.471Z,85.68
2023-03-22T07:14:27.006Z,85.13
2023-03-22T07:16:53.460Z,86.11
2023-03-22T07:19:20.233Z,85.26
2023-03-22T07:21:46.697Z,84.56
2023-03-22T07:24:13.612Z,85.54
2023-03-22T07:26:40.801Z,84.56
2023-03-22T07:29:07.310Z,84.24
2023-03-22T07:31:37.614Z,84.33
2023-03-22T07:34:05.546Z,85.33
2023-03-22T07:36:32.760Z,85.64
2023-03-22T07:38:59.236Z,84.78
2023-03-22T07:41:27.043Z,83.93
2023-03-22T07:43:58.382Z,84.25
2023-03-22T07:46:28.975Z,84.69
2023-03-22T07:48:55.525Z,85.52
2023-03-22T07:51:22.017Z,84.75
2023-03-22T07:53:48.462Z,83.67
2023-03-22T07:56:15.326Z,84.25
2023-03-22T07:58:41.786Z,83.29
2023-03-22T08:01:09.747Z,84.13
2023-03-22T08:03:37.465Z,84.25
2023-03-22T08:06:07.562Z,84.16
2023-03-22T08:08:36.799Z,84.04
2023-03-22T08:11:04.453Z,83.18
2023-03-22T08:13:30.978Z,83.85
2023-03-22T08:15:57.535Z,83.18
2023-03-22T08:18:24.583Z,83.64
2023-03-22T08:20:59.325Z,82.99
2023-03-22T08:23:40.569Z,83.69
2023-03-22T08:26:09.458Z,82.75
2023-03-22T08:28:36.173Z,83.62
2023-03-22T08:31:09.371Z,84.88
2023-03-22T08:33:36.169Z,84.68
2023-03-22T08:36:08.277Z,84.63
2023-03-22T08:38:34.753Z,83.34
2023-03-22T08:41:01.220Z,82.98
2023-03-22T08:43:27.648Z,82.99
2023-03-22T08:45:54.230Z,81.59
2023-03-22T08:48:21.788Z,80.59
2023-03-22T08:50:48.284Z,80.82
2023-03-22T08:53:14.728Z,80.00
2023-03-22T08:55:44.700Z,81.15
2023-03-22T08:58:16.641Z,80.54
2023-03-22T09:00:49.079Z,79.47
2023-03-22T09:03:17.020Z,79.42
2023-03-22T09:05:44.065Z,79.58
2023-03-22T09:08:18.387Z,79.02
2023-03-22T09:10:51.113Z,78.75
2023-03-22T09:13:17.981Z,79.11
2023-03-22T09:15:45.043Z,79.41
2023-03-22T09:18:11.997Z,79.57
2023-03-22T09:20:39.041Z,79.26
2023-03-22T09:23:06.689Z,79.11
2023-03-22T09:25:33.203Z,78.22
2023-03-22T09:27:59.570Z,77.61
2023-03-22T09:30:26.184Z,77.45
2023-03-22T09:32:52.749Z,78.30
2023-03-22T09:35:19.281Z,77.89
2023-03-22T09:37:45.755Z,78.06
2023-03-22T09:40:13.373Z,77.83
2023-03-22T09:42:44.915Z,77.96
2023-03-22T09:45:16.818Z,78.39
2023-03-22T09:47:47.554Z,77.42
2023-03-22T09:50:19.941Z,77.16
2023-03-22T09:52:46.698Z,77.50
2023-03-22T09:55:22.348Z,77.24
2023-03-22T09:57:57.845Z,76.33
2023-03-22T10:00:47.671Z,76.77
2023-03-22T10:03:38.290Z,77.24
2023-03-22T10:06:24.846Z,76.67
2023-03-22T10:09:06.705Z,76.31
2023-03-22T10:11:46.256Z,76.20
2023-03-22T10:14:39.105Z,76.24
2023-03-22T10:17:12.161Z,76.48
2023-03-22T10:19:48.300Z,75.78
2023-03-22T10:22:17.320Z,76.23
2023-03-22T10:24:48.971Z,75.38
2023-03-22T10:27:18.077Z,75.01
2023-03-22T10:30:04.372Z,75.74
2023-03-22T10:32:59.443Z,76.22
2023-03-22T10:35:28.585Z,76.05
2023-03-22T10:37:57.970Z,75.87
2023-03-22T10:40:34.084Z,75.90
2023-03-22T10:43:09.864Z,75.61
2023-03-22T10:45:37.268Z,75.84
2023-03-22T10:48:41.792Z,74.49
2023-03-22T10:51:15.963Z,75.40
2023-03-22T10:53:47.460Z,74.96
2023-03-22T10:56:18.782Z,74.71
2023-03-22T10:58:46.339Z,74.53
2023-03-22T11:01:17.202Z,73.41
2023-03-22T11:03:51.852Z,73.71
2023-03-22T11:06:19.679Z,74.32
2023-03-22T11:09:12.610Z,72.60
2023-03-22T11:11:50.670Z,72.73
2023-03-22T11:14:25.150Z,71.55
2023-03-22T11:17:06.754Z,71.88
2023-03-22T11:19:39.665Z,72.15
2023-03-22T11:22:19.121Z,70.95
2023-03-22T11:24:47.178Z,71.19
2023-03-22T11:27:21.949Z,71.12
2023-03-22T11:29:59.152Z,70.77
2023-03-22T11:32:30.195Z,69.34
2023-03-22T11:35:21.247Z,69.54
2023-03-22T11:37:50.628Z,69.38
2023-03-22T11:40:27.633Z,68.36
2023-03-22T11:43:15.341Z,69.75
2023-03-22T11:45:44.135Z,70.44
2023-03-22T11:48:18.780Z,70.95
2023-03-22T11:50:46.298Z,70.05
2023-03-22T11:53:17.174Z,69.40
2023-03-22T11:55:45.210Z,69.33
2023-03-22T11:58:37.379Z,70.58
2023-03-22T12:01:04.922Z,70.49
2023-03-22T12:03:38.935Z,70.01
2023-03-22T12:06:19.664Z,70.27
2023-03-22T12:08:52.561Z,70.88
2023-03-22T12:11:31.810Z,70.96
2023-03-22T12:14:03.624Z,69.36
2023-03-22T12:16:38.892Z,68.46
2023-03-22T12:19:21.888Z,68.82
2023-03-22T12:21:49.930Z,66.82
2023-03-22T12:24:30.695Z,66.12
2023-03-22T12:27:25.877Z,67.67
2023-03-22T12:30:08.512Z,67.42
2023-03-22T12:32:41.835Z,67.93
2023-03-22T12:35:17.648Z,66.29
2023-03-22T12:37:48.262Z,67.85
2023-03-22T12:40:28.348Z,66.90
2023-03-22T12:43:17.462Z,67.40
2023-03-22T12:45:49.118Z,67.36
2023-03-22T12:48:31.779Z,66.50
2023-03-22T12:51:02.088Z,65.46
2023-03-22T12:53:42.295Z,64.70
2023-03-22T12:56:12.998Z,63.97
2023-03-22T12:58:39.583Z,63.00
2023-03-22T13:01:17.614Z,63.18
2023-03-22T13:03:47.458Z,64.66
2023-03-22T13:06:46.310Z,63.71
2023-03-22T13:09:40.725Z,62.80
2023-03-22T13:12:19.235Z,62.72
2023-03-22T13:15:31.575Z,64.38
2023-03-22T13:18:05.284Z,63.49
2023-03-22T13:20:34.926Z,63.25
2023-03-22T13:23:04.531Z,64.35
2023-03-22T13:25:36.346Z,63.70
2023-03-22T13:28:25.978Z,62.77
2023-03-22T13:30:55.577Z,64.10
2023-03-22T13:33:31.735Z,63.57
2023-03-22T13:36:07.435Z,65.29
2023-03-22T13:38:38.748Z,64.94
2023-03-22T13:41:22.834Z,65.49
2023-03-22T13:43:51.770Z,64.92
2023-03-22T13:46:19.824Z,63.52
2023-03-22T13:48:46.657Z,63.95
2023-03-22T13:51:22.278Z,63.44
2023-03-22T13:54:04.710Z,64.01
2023-03-22T13:56:52.276Z,64.02
2023-03-22T13:59:25.353Z,63.66
2023-03-22T14:02:27.775Z,63.78
2023-03-22T14:04:57.168Z,62.97
2023-03-22T14:07:37.257Z,63.22
2023-03-22T14:10:12.601Z,63.95
2023-03-22T14:12:48.080Z,64.27
2023-03-22T14:15:21.005Z,64.02
2023-03-22T14:18:00.626Z,63.04
2023-03-22T14:20:32.218Z,63.36
